sensor_id;sensor_type;location;lat;lon;timestamp;temperature;humidity
49465;DHT22;35358;49.342;8.802;2023-03-14T00:00:12;9.80;99.90
49465;DHT22;35358;49.342;8.802;2023-03-14T00:02:38;10.00;99.90
49465;DHT22;35358;49.342;8.802;2023-03-14T00:05:08;10.10;99.90
49465;DHT22;35358;49.342;8.802;2023-03-14T00:07:39;10.20;99.90
49465;DHT22;35358;49.342;8.802;2023-03-14T00:10:11;10.20;99.90
49465;DHT22;35358;49.342;8.802;2023-03-14T00:12:38;10.30;99.90
49465;DHT22;35358;49.342;8.802;2023-03-14T00:15:04;10.50;99.90
49465;DHT22;35358;49.342;8.802;2023-03-14T00:17:35;10.60;99.90
49465;DHT22;35358;49.342;8.802;2023-03-14T00:20:02;10.70;99.90
49465;DHT22;35358;49.342;8.802;2023-03-14T00:22:31;10.80;99.90
49465;DHT22;35358;49.342;8.802;2023-03-14T00:24:58;10.80;99.90
49465;DHT22;35358;49.342;8.802;2023-03-14T00:27:26;10.70;99.90
49465;DHT22;35358;49.342;8.802;2023-03-14T00:29:54;10.70;99.90
49465;DHT22;35358;49.342;8.802;2023-03-14T00:32:19;10.80;99.90
49465;DHT22;35358;49.342;8.802;2023-03-14T00:34:47;10.90;99.90
49465;DHT22;35358;49.342;8.802;2023-03-14T00:37:13;10.90;99.90
49465;DHT22;35358;49.342;8.802;2023-03-14T00:39:39;10.90;99.90
49465;DHT22;35358;49.342;8.802;2023-03-14T00:42:05;11.00;99.90
49465;DHT22;35358;49.342;8.802;2023-03-14T00:44:33;11.00;99.90
49465;DHT22;35358;49.342;8.802;2023-03-14T00:47:01;11.00;99.90
49465;DHT22;35358;49.342;8.802;2023-03-14T00:49:29;11.00;99.90
49465;DHT22;35358;49.342;8.802;2023-03-14T00:51:54;11.00;99.90
49465;DHT22;35358;49.342;8.802;2023-03-14T00:54:20;11.10;99.90
49465;DHT22;35358;49.342;8.802;2023-03-14T00:56:50;11.10;99.90
49465;DHT22;35358;49.342;8.802;2023-03-14T00:59:16;11.10;99.90
49465;DHT22;35358;49.342;8.802;2023-03-14T01:01:47;11.10;99.90
49465;DHT22;35358;49.342;8.802;2023-03-14T01:04:12;11.10;99.90
49465;DHT22;35358;49.342;8.802;2023-03-14T01:06:40;11.10;99.90
49465;DHT22;35358;49.342;8.802;2023-03-14T01:09:08;11.10;99.90
49465;DHT22;35358;49.342;8.802;2023-03-14T01:11:35;11.10;99.90
49465;DHT22;35358;49.342;8.802;2023-03-14T01:14:04;11.20;99.90
49465;DHT22;35358;49.342;8.802;2023-03-14T01:16:33;11.20;99.90
49465;DHT22;35358;49.342;8.802;2023-03-14T01:19:02;11.20;99.90
49465;DHT22;35358;49.342;8.802;2023-03-14T01:21:32;11.20;99.90
49465;DHT22;35358;49.342;8.802;2023-03-14T01:23:59;11.20;99.90
49465;DHT22;35358;49.342;8.802;2023-03-14T01:26:30;11.20;99.90
49465;DHT22;35358;49.342;8.802;2023-03-14T01:28:59;11.30;99.90
49465;DHT22;35358;49.342;8.802;2023-03-14T01:31:25;11.40;99.90
49465;DHT22;35358;49.342;8.802;2023-03-14T01:33:54;11.40;99.90
49465;DHT22;35358;49.342;8.802;2023-03-14T01:36:29;11.30;99.90
49465;DHT22;35358;49.342;8.802;2023-03-14T01:38:55;11.30;99.90
49465;DHT22;35358;49.342;8.802;2023-03-14T01:41:25;11.10;99.90
49465;DHT22;35358;49.342;8.802;2023-03-14T01:43:51;11.10;99.90
49465;DHT22;35358;49.342;8.802;2023-03-14T01:49:07;11.00;99.90
49465;DHT22;35358;49.342;8.802;2023-03-14T01:52:39;11.10;99.90
49465;DHT22;35358;49.342;8.802;2023-03-14T01:54:51;11.20;99.90
49465;DHT22;35358;49.342;8.802;2023-03-14T01:57:44;11.20;99.90
49465;DHT22;35358;49.342;8.802;2023-03-14T02:00:15;11.20;99.90
49465;DHT22;35358;49.342;8.802;2023-03-14T02:02:48;11.30;99.90
49465;DHT22;35358;49.342;8.802;2023-03-14T02:05:19;11.30;99.90
49465;DHT22;35358;49.342;8.802;2023-03-14T02:07:50;11.20;99.90
49465;DHT22;35358;49.342;8.802;2023-03-14T02:10:17;11.20;99.90
49465;DHT22;35358;49.342;8.802;2023-03-14T02:12:47;11.30;99.90
49465;DHT22;35358;49.342;8.802;2023-03-14T02:15:13;11.20;99.90
49465;DHT22;35358;49.342;8.802;2023-03-14T02:17:40;11.30;99.90
49465;DHT22;35358;49.342;8.802;2023-03-14T02:22:37;11.20;99.90
49465;DHT22;35358;49.342;8.802;2023-03-14T02:25:06;11.10;99.90
49465;DHT22;35358;49.342;8.802;2023-03-14T02:27:33;11.10;99.90
49465;DHT22;35358;49.342;8.802;2023-03-14T02:30:07;11.30;99.90
49465;DHT22;35358;49.342;8.802;2023-03-14T02:32:40;11.20;99.90
49465;DHT22;35358;49.342;8.802;2023-03-14T02:35:12;11.20;99.90
49465;DHT22;35358;49.342;8.802;2023-03-14T02:37:52;11.10;99.90
49465;DHT22;35358;49.342;8.802;2023-03-14T02:40:19;11.20;99.90
49465;DHT22;35358;49.342;8.802;2023-03-14T02:42:47;11.10;99.90
49465;DHT22;35358;49.342;8.802;2023-03-14T02:47:50;11.10;99.90
49465;DHT22;35358;49.342;8.802;2023-03-14T02:50:20;11.20;99.90
49465;DHT22;35358;49.342;8.802;2023-03-14T02:52:47;11.20;99.90
49465;DHT22;35358;49.342;8.802;2023-03-14T02:55:14;11.20;99.90
49465;DHT22;35358;49.342;8.802;2023-03-14T02:57:44;11.10;99.90
49465;DHT22;35358;49.342;8.802;2023-03-14T03:00:12;11.00;99.90
49465;DHT22;35358;49.342;8.802;2023-03-14T03:02:40;11.00;99.90
49465;DHT22;35358;49.342;8.802;2023-03-14T03:05:08;11.00;99.90
49465;DHT22;35358;49.342;8.802;2023-03-14T03:07:36;10.90;99.90
49465;DHT22;35358;49.342;8.802;2023-03-14T03:10:02;10.90;99.90
49465;DHT22;35358;49.342;8.802;2023-03-14T03:12:28;10.90;99.90
49465;DHT22;35358;49.342;8.802;2023-03-14T03:14:54;11.00;99.90
49465;DHT22;35358;49.342;8.802;2023-03-14T03:17:19;10.90;99.90
49465;DHT22;35358;49.342;8.802;2023-03-14T03:19:47;10.80;99.90
49465;DHT22;35358;49.342;8.802;2023-03-14T03:22:16;10.90;99.90
49465;DHT22;35358;49.342;8.802;2023-03-14T03:24:41;10.90;99.90
49465;DHT22;35358;49.342;8.802;2023-03-14T03:27:07;10.90;99.90
49465;DHT22;35358;49.342;8.802;2023-03-14T03:29:35;10.90;99.90
49465;DHT22;35358;49.342;8.802;2023-03-14T03:32:05;10.80;99.90
49465;DHT22;35358;49.342;8.802;2023-03-14T03:34:31;10.70;99.90
49465;DHT22;35358;49.342;8.802;2023-03-14T03:36:59;10.70;99.90
49465;DHT22;35358;49.342;8.802;2023-03-14T03:39:25;10.70;99.90
49465;DHT22;35358;49.342;8.802;2023-03-14T03:41:50;10.80;99.90
49465;DHT22;35358;49.342;8.802;2023-03-14T03:44:18;10.70;99.90
49465;DHT22;35358;49.342;8.802;2023-03-14T03:46:43;10.70;99.90
49465;DHT22;35358;49.342;8.802;2023-03-14T03:49:11;10.70;99.90
49465;DHT22;35358;49.342;8.802;2023-03-14T03:51:37;10.70;99.90
49465;DHT22;35358;49.342;8.802;2023-03-14T03:54:05;10.80;99.90
49465;DHT22;35358;49.342;8.802;2023-03-14T03:56:30;10.70;99.90
49465;DHT22;35358;49.342;8.802;2023-03-14T03:58:57;10.60;99.90
49465;DHT22;35358;49.342;8.802;2023-03-14T04:01:25;10.60;99.90
49465;DHT22;35358;49.342;8.802;2023-03-14T04:03:50;10.60;99.90
49465;DHT22;35358;49.342;8.802;2023-03-14T04:06:16;10.60;99.90
49465;DHT22;35358;49.342;8.802;2023-03-14T04:08:41;10.60;99.90
49465;DHT22;35358;49.342;8.802;2023-03-14T04:11:09;10.70;99.90
49465;DHT22;35358;49.342;8.802;2023-03-14T04:13:38;10.80;99.90
49465;DHT22;35358;49.342;8.802;2023-03-14T04:16:03;10.70;99.90
49465;DHT22;35358;49.342;8.802;2023-03-14T04:18:29;10.70;99.90
49465;DHT22;35358;49.342;8.802;2023-03-14T04:20:58;10.80;99.90
49465;DHT22;35358;49.342;8.802;2023-03-14T04:23:25;10.80;99.90
49465;DHT22;35358;49.342;8.802;2023-03-14T04:25:52;10.80;99.90
49465;DHT22;35358;49.342;8.802;2023-03-14T04:28:20;10.90;99.90
49465;DHT22;35358;49.342;8.802;2023-03-14T04:30:46;10.80;99.90
49465;DHT22;35358;49.342;8.802;2023-03-14T04:33:14;10.90;99.90
49465;DHT22;35358;49.342;8.802;2023-03-14T04:35:43;10.90;99.90
49465;DHT22;35358;49.342;8.802;2023-03-14T04:38:12;10.90;99.90
49465;DHT22;35358;49.342;8.802;2023-03-14T04:40:39;11.00;99.90
49465;DHT22;35358;49.342;8.802;2023-03-14T04:43:05;10.90;99.90
49465;DHT22;35358;49.342;8.802;2023-03-14T04:45:31;10.90;99.90
49465;DHT22;35358;49.342;8.802;2023-03-14T04:47:59;10.90;99.90
49465;DHT22;35358;49.342;8.802;2023-03-14T04:50:27;10.90;99.90
49465;DHT22;35358;49.342;8.802;2023-03-14T04:52:55;10.90;99.90
49465;DHT22;35358;49.342;8.802;2023-03-14T04:55:23;10.90;99.90
49465;DHT22;35358;49.342;8.802;2023-03-14T04:57:49;10.90;99.90
49465;DHT22;35358;49.342;8.802;2023-03-14T05:00:15;10.90;99.90
49465;DHT22;35358;49.342;8.802;2023-03-14T05:02:43;10.90;99.90
49465;DHT22;35358;49.342;8.802;2023-03-14T05:05:11;10.90;99.90
49465;DHT22;35358;49.342;8.802;2023-03-14T05:07:37;10.90;99.90
49465;DHT22;35358;49.342;8.802;2023-03-14T05:10:07;10.80;99.90
49465;DHT22;35358;49.342;8.802;2023-03-14T05:12:33;10.80;99.90
49465;DHT22;35358;49.342;8.802;2023-03-14T05:14:58;10.90;99.90
49465;DHT22;35358;49.342;8.802;2023-03-14T05:17:24;10.90;99.90
49465;DHT22;35358;49.342;8.802;2023-03-14T05:19:52;10.90;99.90
49465;DHT22;35358;49.342;8.802;2023-03-14T05:22:18;10.80;99.90
49465;DHT22;35358;49.342;8.802;2023-03-14T05:24:46;10.90;99.90
49465;DHT22;35358;49.342;8.802;2023-03-14T05:27:11;10.90;99.90
49465;DHT22;35358;49.342;8.802;2023-03-14T05:29:42;10.90;99.90
49465;DHT22;35358;49.342;8.802;2023-03-14T05:32:10;10.90;99.90
49465;DHT22;35358;49.342;8.802;2023-03-14T05:34:37;10.90;99.90
49465;DHT22;35358;49.342;8.802;2023-03-14T05:37:03;10.90;99.90
49465;DHT22;35358;49.342;8.802;2023-03-14T05:39:31;10.90;99.90
49465;DHT22;35358;49.342;8.802;2023-03-14T05:41:57;10.80;99.90
49465;DHT22;35358;49.342;8.802;2023-03-14T05:44:23;10.80;99.90
49465;DHT22;35358;49.342;8.802;2023-03-14T05:46:48;10.70;99.90
49465;DHT22;35358;49.342;8.802;2023-03-14T05:49:14;10.70;99.90
49465;DHT22;35358;49.342;8.802;2023-03-14T05:51:39;10.70;99.90
49465;DHT22;35358;49.342;8.802;2023-03-14T05:54:08;10.70;99.90
49465;DHT22;35358;49.342;8.802;2023-03-14T05:56:33;10.70;99.90
49465;DHT22;35358;49.342;8.802;2023-03-14T05:59:01;10.70;99.90
49465;DHT22;35358;49.342;8.802;2023-03-14T06:01:30;10.70;99.90
49465;DHT22;35358;49.342;8.802;2023-03-14T06:03:56;10.70;99.90
49465;DHT22;35358;49.342;8.802;2023-03-14T06:06:21;10.80;99.90
49465;DHT22;35358;49.342;8.802;2023-03-14T06:08:47;10.80;99.90
49465;DHT22;35358;49.342;8.802;2023-03-14T06:11:13;10.80;99.90
49465;DHT22;35358;49.342;8.802;2023-03-14T06:13:41;10.80;99.90
49465;DHT22;35358;49.342;8.802;2023-03-14T06:16:09;10.80;99.90
49465;DHT22;35358;49.342;8.802;2023-03-14T06:18:38;10.80;99.90
49465;DHT22;35358;49.342;8.802;2023-03-14T06:21:06;10.80;99.90
49465;DHT22;35358;49.342;8.802;2023-03-14T06:23:31;10.80;99.90
49465;DHT22;35358;49.342;8.802;2023-03-14T06:26:00;10.80;99.90
49465;DHT22;35358;49.342;8.802;2023-03-14T06:28:26;10.80;99.90
49465;DHT22;35358;49.342;8.802;2023-03-14T06:30:54;10.90;99.90
49465;DHT22;35358;49.342;8.802;2023-03-14T06:33:19;10.90;99.90
49465;DHT22;35358;49.342;8.802;2023-03-14T06:35:45;10.90;99.90
49465;DHT22;35358;49.342;8.802;2023-03-14T06:38:13;10.90;99.90
49465;DHT22;35358;49.342;8.802;2023-03-14T06:40:38;10.90;99.90
49465;DHT22;35358;49.342;8.802;2023-03-14T06:43:04;10.90;99.90
49465;DHT22;35358;49.342;8.802;2023-03-14T06:45:29;11.00;99.90
49465;DHT22;35358;49.342;8.802;2023-03-14T06:47:55;11.10;99.90
49465;DHT22;35358;49.342;8.802;2023-03-14T06:50:23;11.00;99.90
49465;DHT22;35358;49.342;8.802;2023-03-14T06:52:51;11.10;99.90
49465;DHT22;35358;49.342;8.802;2023-03-14T06:55:17;11.10;99.90
49465;DHT22;35358;49.342;8.802;2023-03-14T06:57:45;11.10;99.90
49465;DHT22;35358;49.342;8.802;2023-03-14T07:00:11;11.10;99.90
49465;DHT22;35358;49.342;8.802;2023-03-14T07:02:40;11.20;99.90
49465;DHT22;35358;49.342;8.802;2023-03-14T07:05:11;11.20;99.90
49465;DHT22;35358;49.342;8.802;2023-03-14T07:07:39;11.10;99.90
49465;DHT22;35358;49.342;8.802;2023-03-14T07:10:07;11.20;99.90
49465;DHT22;35358;49.342;8.802;2023-03-14T07:12:34;11.20;99.90
49465;DHT22;35358;49.342;8.802;2023-03-14T07:14:59;11.20;99.90
49465;DHT22;35358;49.342;8.802;2023-03-14T07:17:25;11.20;99.90
49465;DHT22;35358;49.342;8.802;2023-03-14T07:19:53;11.20;99.90
49465;DHT22;35358;49.342;8.802;2023-03-14T07:22:19;11.20;99.90
49465;DHT22;35358;49.342;8.802;2023-03-14T07:24:46;11.20;99.90
49465;DHT22;35358;49.342;8.802;2023-03-14T07:27:12;11.20;99.90
49465;DHT22;35358;49.342;8.802;2023-03-14T07:29:40;11.20;99.90
49465;DHT22;35358;49.342;8.802;2023-03-14T07:32:08;11.20;99.90
49465;DHT22;35358;49.342;8.802;2023-03-14T07:34:34;11.20;99.90
49465;DHT22;35358;49.342;8.802;2023-03-14T07:37:02;11.10;99.90
49465;DHT22;35358;49.342;8.802;2023-03-14T07:39:30;11.10;99.90
49465;DHT22;35358;49.342;8.802;2023-03-14T07:41:56;11.20;99.90
49465;DHT22;35358;49.342;8.802;2023-03-14T07:44:24;11.20;99.90
49465;DHT22;35358;49.342;8.802;2023-03-14T07:46:49;11.20;99.90
49465;DHT22;35358;49.342;8.802;2023-03-14T07:49:15;11.20;99.90
49465;DHT22;35358;49.342;8.802;2023-03-14T07:51:40;11.20;99.90
49465;DHT22;35358;49.342;8.802;2023-03-14T07:54:11;11.20;99.90
49465;DHT22;35358;49.342;8.802;2023-03-14T07:56:37;11.20;99.90
49465;DHT22;35358;49.342;8.802;2023-03-14T07:59:02;11.20;99.90
49465;DHT22;35358;49.342;8.802;2023-03-14T08:01:29;11.30;99.90
49465;DHT22;35358;49.342;8.802;2023-03-14T08:03:54;11.30;99.90
49465;DHT22;35358;49.342;8.802;2023-03-14T08:06:22;11.30;99.90
49465;DHT22;35358;49.342;8.802;2023-03-14T08:08:48;11.40;99.90
49465;DHT22;35358;49.342;8.802;2023-03-14T08:11:13;11.40;99.90
49465;DHT22;35358;49.342;8.802;2023-03-14T08:13:39;11.40;99.90
49465;DHT22;35358;49.342;8.802;2023-03-14T08:16:07;11.40;99.90
49465;DHT22;35358;49.342;8.802;2023-03-14T08:18:33;11.40;99.90
49465;DHT22;35358;49.342;8.802;2023-03-14T08:20:59;11.40;99.90
49465;DHT22;35358;49.342;8.802;2023-03-14T08:23:24;11.40;99.90
49465;DHT22;35358;49.342;8.802;2023-03-14T08:25:50;11.40;99.90
49465;DHT22;35358;49.342;8.802;2023-03-14T08:28:19;11.40;99.90
49465;DHT22;35358;49.342;8.802;2023-03-14T08:30:47;11.50;99.90
49465;DHT22;35358;49.342;8.802;2023-03-14T08:33:15;11.50;99.90
49465;DHT22;35358;49.342;8.802;2023-03-14T08:35:40;11.50;99.90
49465;DHT22;35358;49.342;8.802;2023-03-14T08:38:07;11.50;99.90
49465;DHT22;35358;49.342;8.802;2023-03-14T08:40:34;11.60;99.90
49465;DHT22;35358;49.342;8.802;2023-03-14T08:43:00;11.60;99.90
49465;DHT22;35358;49.342;8.802;2023-03-14T08:45:26;11.70;99.90
49465;DHT22;35358;49.342;8.802;2023-03-14T08:47:52;11.70;99.90
49465;DHT22;35358;49.342;8.802;2023-03-14T08:50:17;11.80;99.90
49465;DHT22;35358;49.342;8.802;2023-03-14T08:52:45;11.80;99.90
49465;DHT22;35358;49.342;8.802;2023-03-14T08:55:11;11.80;99.90
49465;DHT22;35358;49.342;8.802;2023-03-14T08:57:37;11.90;99.90
49465;DHT22;35358;49.342;8.802;2023-03-14T09:00:06;11.90;99.90
49465;DHT22;35358;49.342;8.802;2023-03-14T09:02:37;11.90;99.90
49465;DHT22;35358;49.342;8.802;2023-03-14T09:05:06;11.90;99.90
49465;DHT22;35358;49.342;8.802;2023-03-14T09:07:31;11.90;99.90
49465;DHT22;35358;49.342;8.802;2023-03-14T09:09:57;11.90;99.90
49465;DHT22;35358;49.342;8.802;2023-03-14T09:12:25;11.90;99.90
49465;DHT22;35358;49.342;8.802;2023-03-14T09:14:50;12.10;99.90
49465;DHT22;35358;49.342;8.802;2023-03-14T09:17:16;12.20;99.90
49465;DHT22;35358;49.342;8.802;2023-03-14T09:19:44;12.20;99.90
49465;DHT22;35358;49.342;8.802;2023-03-14T09:22:16;11.90;99.90
49465;DHT22;35358;49.342;8.802;2023-03-14T09:24:42;11.90;99.90
49465;DHT22;35358;49.342;8.802;2023-03-14T09:27:08;11.70;99.90
49465;DHT22;35358;49.342;8.802;2023-03-14T09:29:34;11.80;99.90
49465;DHT22;35358;49.342;8.802;2023-03-14T09:31:59;11.80;99.90
49465;DHT22;35358;49.342;8.802;2023-03-14T09:34:25;11.60;99.90
49465;DHT22;35358;49.342;8.802;2023-03-14T09:36:51;11.60;99.90
49465;DHT22;35358;49.342;8.802;2023-03-14T09:39:17;11.60;99.90
49465;DHT22;35358;49.342;8.802;2023-03-14T09:41:47;11.60;99.90
49465;DHT22;35358;49.342;8.802;2023-03-14T09:44:24;11.70;99.90
49465;DHT22;35358;49.342;8.802;2023-03-14T09:46:53;11.80;99.90
49465;DHT22;35358;49.342;8.802;2023-03-14T09:49:22;11.80;99.90
49465;DHT22;35358;49.342;8.802;2023-03-14T09:51:53;11.80;99.90
49465;DHT22;35358;49.342;8.802;2023-03-14T09:57:03;11.80;99.90
49465;DHT22;35358;49.342;8.802;2023-03-14T09:59:32;11.90;99.90
49465;DHT22;35358;49.342;8.802;2023-03-14T10:02:01;11.90;99.90
49465;DHT22;35358;49.342;8.802;2023-03-14T10:04:32;12.00;99.90
49465;DHT22;35358;49.342;8.802;2023-03-14T10:06:58;12.00;99.90
49465;DHT22;35358;49.342;8.802;2023-03-14T10:09:24;12.00;99.90
49465;DHT22;35358;49.342;8.802;2023-03-14T10:11:55;11.90;99.90
49465;DHT22;35358;49.342;8.802;2023-03-14T10:14:33;11.90;99.90
49465;DHT22;35358;49.342;8.802;2023-03-14T10:17:11;11.90;99.90
49465;DHT22;35358;49.342;8.802;2023-03-14T10:19:43;11.90;99.90
49465;DHT22;35358;49.342;8.802;2023-03-14T10:22:19;12.00;99.90
49465;DHT22;35358;49.342;8.802;2023-03-14T10:24:55;12.00;99.90
49465;DHT22;35358;49.342;8.802;2023-03-14T10:27:32;11.90;99.90
49465;DHT22;35358;49.342;8.802;2023-03-14T10:30:04;11.80;99.90
49465;DHT22;35358;49.342;8.802;2023-03-14T10:32:40;11.70;99.90
49465;DHT22;35358;49.342;8.802;2023-03-14T10:38:00;11.70;99.90
49465;DHT22;35358;49.342;8.802;2023-03-14T10:40:39;11.60;99.90
49465;DHT22;35358;49.342;8.802;2023-03-14T10:43:13;11.50;99.90
49465;DHT22;35358;49.342;8.802;2023-03-14T10:45:42;11.60;99.90
49465;DHT22;35358;49.342;8.802;2023-03-14T10:51:07;11.40;99.90
49465;DHT22;35358;49.342;8.802;2023-03-14T10:53:48;11.40;99.90
49465;DHT22;35358;49.342;8.802;2023-03-14T10:56:21;11.30;99.90
49465;DHT22;35358;49.342;8.802;2023-03-14T10:58:56;11.30;99.90
49465;DHT22;35358;49.342;8.802;2023-03-14T11:10:22;11.30;99.90
49465;DHT22;35358;49.342;8.802;2023-03-14T11:15:20;11.20;99.90
49465;DHT22;35358;49.342;8.802;2023-03-14T11:20:38;11.10;99.90
49465;DHT22;35358;49.342;8.802;2023-03-14T11:23:31;11.00;99.90
49465;DHT22;35358;49.342;8.802;2023-03-14T11:32:13;10.80;99.90
49465;DHT22;35358;49.342;8.802;2023-03-14T11:34:47;10.70;99.90
49465;DHT22;35358;49.342;8.802;2023-03-14T11:37:29;10.70;99.90
49465;DHT22;35358;49.342;8.802;2023-03-14T11:40:22;10.60;99.90
49465;DHT22;35358;49.342;8.802;2023-03-14T11:45:35;10.50;99.90
49465;DHT22;35358;49.342;8.802;2023-03-14T11:48:24;10.50;99.90
49465;DHT22;35358;49.342;8.802;2023-03-14T11:50:53;10.40;99.90
49465;DHT22;35358;49.342;8.802;2023-03-14T11:53:39;10.40;99.90
49465;DHT22;35358;49.342;8.802;2023-03-14T11:56:17;10.40;99.90
49465;DHT22;35358;49.342;8.802;2023-03-14T11:58:51;10.40;99.90
49465;DHT22;35358;49.342;8.802;2023-03-14T12:01:20;10.40;99.90
49465;DHT22;35358;49.342;8.802;2023-03-14T12:04:09;10.40;99.90
49465;DHT22;35358;49.342;8.802;2023-03-14T12:06:47;10.40;99.90
49465;DHT22;35358;49.342;8.802;2023-03-14T12:09:13;10.40;99.90
49465;DHT22;35358;49.342;8.802;2023-03-14T12:11:44;10.30;99.90
49465;DHT22;35358;49.342;8.802;2023-03-14T12:19:39;10.20;99.90
49465;DHT22;35358;49.342;8.802;2023-03-14T12:22:24;10.10;99.90
49465;DHT22;35358;49.342;8.802;2023-03-14T12:25:04;10.10;99.90
49465;DHT22;35358;49.342;8.802;2023-03-14T12:35:52;9.90;99.90
49465;DHT22;35358;49.342;8.802;2023-03-14T12:43:53;9.60;99.90
49465;DHT22;35358;49.342;8.802;2023-03-14T12:46:26;9.60;99.90
49465;DHT22;35358;49.342;8.802;2023-03-14T12:51:37;9.50;99.90
49465;DHT22;35358;49.342;8.802;2023-03-14T12:54:35;9.30;99.90
49465;DHT22;35358;49.342;8.802;2023-03-14T12:57:33;9.20;99.90
49465;DHT22;35358;49.342;8.802;2023-03-14T13:00:22;8.90;99.90
49465;DHT22;35358;49.342;8.802;2023-03-14T13:02:49;8.80;99.90
49465;DHT22;35358;49.342;8.802;2023-03-14T13:05:19;8.80;99.90
49465;DHT22;35358;49.342;8.802;2023-03-14T13:10:29;8.70;99.90
49465;DHT22;35358;49.342;8.802;2023-03-14T13:13:17;8.80;99.90
49465;DHT22;35358;49.342;8.802;2023-03-14T13:15:46;8.90;99.90
49465;DHT22;35358;49.342;8.802;2023-03-14T13:18:18;9.10;99.90
49465;DHT22;35358;49.342;8.802;2023-03-14T13:20:53;9.30;99.90
49465;DHT22;35358;49.342;8.802;2023-03-14T13:23:20;9.60;99.90
49465;DHT22;35358;49.342;8.802;2023-03-14T13:25:47;9.70;99.90
49465;DHT22;35358;49.342;8.802;2023-03-14T13:28:15;9.90;99.90
49465;DHT22;35358;49.342;8.802;2023-03-14T13:30:44;10.00;99.90
49465;DHT22;35358;49.342;8.802;2023-03-14T13:33:23;10.60;99.90
49465;DHT22;35358;49.342;8.802;2023-03-14T13:38:23;10.50;99.90
49465;DHT22;35358;49.342;8.802;2023-03-14T13:40:51;10.30;99.90
49465;DHT22;35358;49.342;8.802;2023-03-14T13:43:20;10.10;99.90
49465;DHT22;35358;49.342;8.802;2023-03-14T13:46:07;10.00;99.90
49465;DHT22;35358;49.342;8.802;2023-03-14T13:48:43;10.00;99.90
49465;DHT22;35358;49.342;8.802;2023-03-14T13:51:15;9.90;99.90
49465;DHT22;35358;49.342;8.802;2023-03-14T13:53:48;9.90;99.90
49465;DHT22;35358;49.342;8.802;2023-03-14T13:56:24;9.80;99.90
49465;DHT22;35358;49.342;8.802;2023-03-14T13:58:51;9.80;99.90
49465;DHT22;35358;49.342;8.802;2023-03-14T14:04:05;9.60;99.90
49465;DHT22;35358;49.342;8.802;2023-03-14T14:06:35;9.60;99.90
49465;DHT22;35358;49.342;8.802;2023-03-14T14:09:18;9.60;99.90
49465;DHT22;35358;49.342;8.802;2023-03-14T14:12:08;9.60;99.90
49465;DHT22;35358;49.342;8.802;2023-03-14T14:14:42;9.70;99.90
49465;DHT22;35358;49.342;8.802;2023-03-14T14:17:12;9.70;99.90
49465;DHT22;35358;49.342;8.802;2023-03-14T14:19:43;9.70;99.90
49465;DHT22;35358;49.342;8.802;2023-03-14T14:22:10;9.70;99.90
49465;DHT22;35358;49.342;8.802;2023-03-14T14:24:37;9.70;99.90
49465;DHT22;35358;49.342;8.802;2023-03-14T14:27:17;9.70;99.90
49465;DHT22;35358;49.342;8.802;2023-03-14T14:29:44;9.70;99.90
49465;DHT22;35358;49.342;8.802;2023-03-14T14:32:23;9.70;99.90
49465;DHT22;35358;49.342;8.802;2023-03-14T14:39:52;9.80;99.90
49465;DHT22;35358;49.342;8.802;2023-03-14T14:42:24;9.80;99.90
49465;DHT22;35358;49.342;8.802;2023-03-14T14:44:56;9.80;99.90
49465;DHT22;35358;49.342;8.802;2023-03-14T14:47:26;9.80;99.90
49465;DHT22;35358;49.342;8.802;2023-03-14T14:49:54;9.80;99.90
49465;DHT22;35358;49.342;8.802;2023-03-14T14:52:43;9.70;99.90
49465;DHT22;35358;49.342;8.802;2023-03-14T14:55:19;9.80;99.90
49465;DHT22;35358;49.342;8.802;2023-03-14T14:57:53;9.80;99.90
49465;DHT22;35358;49.342;8.802;2023-03-14T15:00:22;9.80;99.90
49465;DHT22;35358;49.342;8.802;2023-03-14T15:02:49;9.90;99.90
49465;DHT22;35358;49.342;8.802;2023-03-14T15:05:19;9.90;99.90
49465;DHT22;35358;49.342;8.802;2023-03-14T15:07:48;9.90;99.90
49465;DHT22;35358;49.342;8.802;2023-03-14T15:10:16;10.10;99.90
49465;DHT22;35358;49.342;8.802;2023-03-14T15:12:42;10.40;99.90
49465;DHT22;35358;49.342;8.802;2023-03-14T15:15:09;10.50;99.90
49465;DHT22;35358;49.342;8.802;2023-03-14T15:17:35;10.50;99.90
49465;DHT22;35358;49.342;8.802;2023-03-14T15:20:06;10.30;99.90
49465;DHT22;35358;49.342;8.802;2023-03-14T15:22:35;10.10;99.90
49465;DHT22;35358;49.342;8.802;2023-03-14T15:25:02;10.00;99.90
49465;DHT22;35358;49.342;8.802;2023-03-14T15:27:30;10.00;99.90
49465;DHT22;35358;49.342;8.802;2023-03-14T15:29:56;10.10;99.90
49465;DHT22;35358;49.342;8.802;2023-03-14T15:32:24;10.50;99.90
49465;DHT22;35358;49.342;8.802;2023-03-14T15:34:55;10.80;99.90
49465;DHT22;35358;49.342;8.802;2023-03-14T15:37:26;11.00;99.90
49465;DHT22;35358;49.342;8.802;2023-03-14T15:39:54;11.20;99.90
49465;DHT22;35358;49.342;8.802;2023-03-14T15:42:23;11.10;99.90
49465;DHT22;35358;49.342;8.802;2023-03-14T15:44:49;10.90;99.90
49465;DHT22;35358;49.342;8.802;2023-03-14T15:47:17;10.70;99.90
49465;DHT22;35358;49.342;8.802;2023-03-14T15:49:45;11.00;99.90
49465;DHT22;35358;49.342;8.802;2023-03-14T15:52:14;11.20;99.90
49465;DHT22;35358;49.342;8.802;2023-03-14T15:54:39;11.10;99.90
49465;DHT22;35358;49.342;8.802;2023-03-14T15:57:10;11.30;99.90
49465;DHT22;35358;49.342;8.802;2023-03-14T15:59:35;11.40;99.90
49465;DHT22;35358;49.342;8.802;2023-03-14T16:02:01;11.40;99.90
49465;DHT22;35358;49.342;8.802;2023-03-14T16:04:27;11.80;99.90
49465;DHT22;35358;49.342;8.802;2023-03-14T16:06:52;11.70;99.90
49465;DHT22;35358;49.342;8.802;2023-03-14T16:09:18;11.50;99.90
49465;DHT22;35358;49.342;8.802;2023-03-14T16:11:46;11.30;99.90
49465;DHT22;35358;49.342;8.802;2023-03-14T16:14:18;11.70;99.90
49465;DHT22;35358;49.342;8.802;2023-03-14T16:16:46;11.70;99.90
49465;DHT22;35358;49.342;8.802;2023-03-14T16:19:14;11.70;99.90
49465;DHT22;35358;49.342;8.802;2023-03-14T16:21:40;11.30;99.90
49465;DHT22;35358;49.342;8.802;2023-03-14T16:24:07;11.00;99.90
49465;DHT22;35358;49.342;8.802;2023-03-14T16:26:38;11.30;99.90
49465;DHT22;35358;49.342;8.802;2023-03-14T16:29:06;11.60;99.90
49465;DHT22;35358;49.342;8.802;2023-03-14T16:31:31;11.20;99.90
49465;DHT22;35358;49.342;8.802;2023-03-14T16:34:02;11.20;99.90
49465;DHT22;35358;49.342;8.802;2023-03-14T16:36:28;11.40;99.90
49465;DHT22;35358;49.342;8.802;2023-03-14T16:38:54;11.50;99.90
49465;DHT22;35358;49.342;8.802;2023-03-14T16:41:21;11.50;99.90
49465;DHT22;35358;49.342;8.802;2023-03-14T16:43:47;11.20;99.90
49465;DHT22;35358;49.342;8.802;2023-03-14T16:46:17;10.80;99.90
49465;DHT22;35358;49.342;8.802;2023-03-14T16:48:44;10.50;99.90
49465;DHT22;35358;49.342;8.802;2023-03-14T16:51:10;10.20;99.90
49465;DHT22;35358;49.342;8.802;2023-03-14T16:53:37;10.10;99.90
49465;DHT22;35358;49.342;8.802;2023-03-14T16:56:08;9.90;99.90
49465;DHT22;35358;49.342;8.802;2023-03-14T16:58:35;9.80;99.90